sensor_id;sensor_type;location;lat;lon;timestamp;P1;durP1;ratioP1;P2;durP2;ratioP2
72273;SDS011;77240;48.692;8.948;2024-03-22T00:02:02;20.15;;;15.50;;
72273;SDS011;77240;48.692;8.948;2024-03-22T00:04:28;19.25;;;15.27;;
72273;SDS011;77240;48.692;8.948;2024-03-22T00:06:55;20.50;;;16.60;;
72273;SDS011;77240;48.692;8.948;2024-03-22T00:09:21;19.58;;;15.27;;
72273;SDS011;77240;48.692;8.948;2024-03-22T00:11:49;19.15;;;15.25;;
72273;SDS011;77240;48.692;8.948;2024-03-22T00:14:15;17.20;;;14.07;;
72273;SDS011;77240;48.692;8.948;2024-03-22T00:16:42;15.85;;;14.15;;
72273;SDS011;77240;48.692;8.948;2024-03-22T00:19:08;18.27;;;14.43;;
72273;SDS011;77240;48.692;8.948;2024-03-22T00:21:35;18.15;;;13.52;;
72273;SDS011;77240;48.692;8.948;2024-03-22T00:24:01;22.15;;;14.80;;
72273;SDS011;77240;48.692;8.948;2024-03-22T00:26:27;15.43;;;13.23;;
72273;SDS011;77240;48.692;8.948;2024-03-22T00:28:53;18.63;;;14.43;;
72273;SDS011;77240;48.692;8.948;2024-03-22T00:31:20;16.48;;;14.00;;
72273;SDS011;77240;48.692;8.948;2024-03-22T00:33:45;17.27;;;13.77;;
72273;SDS011;77240;48.692;8.948;2024-03-22T00:36:12;15.93;;;13.45;;
72273;SDS011;77240;48.692;8.948;2024-03-22T00:38:39;15.50;;;12.90;;
72273;SDS011;77240;48.692;8.948;2024-03-22T00:41:05;15.30;;;12.40;;
72273;SDS011;77240;48.692;8.948;2024-03-22T00:43:31;18.25;;;13.48;;
72273;SDS011;77240;48.692;8.948;2024-03-22T00:45:57;15.10;;;13.10;;
72273;SDS011;77240;48.692;8.948;2024-03-22T00:48:24;15.75;;;12.65;;
72273;SDS011;77240;48.692;8.948;2024-03-22T00:50:50;17.13;;;13.70;;
72273;SDS011;77240;48.692;8.948;2024-03-22T00:53:16;18.38;;;13.82;;
72273;SDS011;77240;48.692;8.948;2024-03-22T00:55:43;17.58;;;13.38;;
72273;SDS011;77240;48.692;8.948;2024-03-22T00:58:10;15.02;;;13.05;;
72273;SDS011;77240;48.692;8.948;2024-03-22T01:00:36;17.38;;;13.35;;
72273;SDS011;77240;48.692;8.948;2024-03-22T01:03:03;14.40;;;11.90;;
72273;SDS011;77240;48.692;8.948;2024-03-22T01:05:30;16.48;;;13.30;;
72273;SDS011;77240;48.692;8.948;2024-03-22T01:07:56;16.27;;;13.25;;
72273;SDS011;77240;48.692;8.948;2024-03-22T01:10:22;16.83;;;13.88;;
72273;SDS011;77240;48.692;8.948;2024-03-22T01:12:48;19.48;;;13.80;;
72273;SDS011;77240;48.692;8.948;2024-03-22T01:15:14;17.27;;;12.90;;
72273;SDS011;77240;48.692;8.948;2024-03-22T01:17:41;17.17;;;12.95;;
72273;SDS011;77240;48.692;8.948;2024-03-22T01:20:07;18.60;;;14.30;;
72273;SDS011;77240;48.692;8.948;2024-03-22T01:22:34;18.88;;;14.30;;
72273;SDS011;77240;48.692;8.948;2024-03-22T01:25:01;17.40;;;13.55;;
72273;SDS011;77240;48.692;8.948;2024-03-22T01:27:28;16.08;;;13.30;;
72273;SDS011;77240;48.692;8.948;2024-03-22T01:29:54;16.60;;;12.30;;
72273;SDS011;77240;48.692;8.948;2024-03-22T01:32:21;17.10;;;13.60;;
72273;SDS011;77240;48.692;8.948;2024-03-22T01:34:49;19.85;;;13.20;;
72273;SDS011;77240;48.692;8.948;2024-03-22T01:37:15;16.42;;;12.40;;
72273;SDS011;77240;48.692;8.948;2024-03-22T01:39:42;15.25;;;11.43;;
72273;SDS011;77240;48.692;8.948;2024-03-22T01:42:09;15.73;;;12.55;;
72273;SDS011;77240;48.692;8.948;2024-03-22T01:44:36;17.90;;;13.50;;
72273;SDS011;77240;48.692;8.948;2024-03-22T01:47:02;18.92;;;13.05;;
72273;SDS011;77240;48.692;8.948;2024-03-22T01:49:29;19.30;;;12.85;;
72273;SDS011;77240;48.692;8.948;2024-03-22T01:51:56;15.52;;;12.73;;
72273;SDS011;77240;48.692;8.948;2024-03-22T01:54:23;17.90;;;13.85;;
72273;SDS011;77240;48.692;8.948;2024-03-22T01:56:51;15.93;;;14.25;;
72273;SDS011;77240;48.692;8.948;2024-03-22T01:59:18;16.80;;;13.65;;
72273;SDS011;77240;48.692;8.948;2024-03-22T02:01:50;16.67;;;12.53;;
72273;SDS011;77240;48.692;8.948;2024-03-22T02:04:16;18.05;;;12.68;;
72273;SDS011;77240;48.692;8.948;2024-03-22T02:06:43;16.05;;;13.35;;
72273;SDS011;77240;48.692;8.948;2024-03-22T02:09:10;18.15;;;12.88;;
72273;SDS011;77240;48.692;8.948;2024-03-22T02:11:36;17.05;;;13.52;;
72273;SDS011;77240;48.692;8.948;2024-03-22T02:14:05;16.50;;;12.57;;
72273;SDS011;77240;48.692;8.948;2024-03-22T02:16:33;21.20;;;16.90;;
72273;SDS011;77240;48.692;8.948;2024-03-22T02:18:59;20.73;;;16.60;;
72273;SDS011;77240;48.692;8.948;2024-03-22T02:21:25;24.38;;;17.27;;
72273;SDS011;77240;48.692;8.948;2024-03-22T02:23:53;16.95;;;14.20;;
72273;SDS011;77240;48.692;8.948;2024-03-22T02:26:19;19.13;;;15.23;;
72273;SDS011;77240;48.692;8.948;2024-03-22T02:28:45;15.82;;;13.00;;
72273;SDS011;77240;48.692;8.948;2024-03-22T02:31:11;16.42;;;13.98;;
72273;SDS011;77240;48.692;8.948;2024-03-22T02:33:37;19.98;;;15.73;;
72273;SDS011;77240;48.692;8.948;2024-03-22T02:36:05;22.60;;;17.02;;
72273;SDS011;77240;48.692;8.948;2024-03-22T02:38:31;18.45;;;14.75;;
72273;SDS011;77240;48.692;8.948;2024-03-22T02:40:58;20.10;;;15.48;;
72273;SDS011;77240;48.692;8.948;2024-03-22T02:43:25;19.10;;;14.82;;
72273;SDS011;77240;48.692;8.948;2024-03-22T02:45:51;20.23;;;15.63;;
72273;SDS011;77240;48.692;8.948;2024-03-22T02:48:17;18.00;;;14.02;;
72273;SDS011;77240;48.692;8.948;2024-03-22T02:50:44;15.93;;;13.05;;
72273;SDS011;77240;48.692;8.948;2024-03-22T02:53:12;16.80;;;13.32;;
72273;SDS011;77240;48.692;8.948;2024-03-22T02:55:39;17.15;;;14.02;;
72273;SDS011;77240;48.692;8.948;2024-03-22T02:58:08;19.70;;;15.30;;
72273;SDS011;77240;48.692;8.948;2024-03-22T03:00:39;22.75;;;17.85;;
72273;SDS011;77240;48.692;8.948;2024-03-22T03:03:06;24.05;;;17.58;;
72273;SDS011;77240;48.692;8.948;2024-03-22T03:05:33;23.40;;;18.08;;
72273;SDS011;77240;48.692;8.948;2024-03-22T03:08:00;24.52;;;15.52;;
72273;SDS011;77240;48.692;8.948;2024-03-22T03:10:27;19.35;;;14.32;;
72273;SDS011;77240;48.692;8.948;2024-03-22T03:12:54;16.38;;;13.73;;
72273;SDS011;77240;48.692;8.948;2024-03-22T03:15:20;15.48;;;12.82;;
72273;SDS011;77240;48.692;8.948;2024-03-22T03:17:49;14.68;;;12.82;;
72273;SDS011;77240;48.692;8.948;2024-03-22T03:20:15;15.70;;;12.10;;
72273;SDS011;77240;48.692;8.948;2024-03-22T03:22:43;16.27;;;12.93;;
72273;SDS011;77240;48.692;8.948;2024-03-22T03:25:09;17.25;;;14.02;;
72273;SDS011;77240;48.692;8.948;2024-03-22T03:27:36;16.75;;;14.73;;
72273;SDS011;77240;48.692;8.948;2024-03-22T03:30:02;16.02;;;14.18;;
72273;SDS011;77240;48.692;8.948;2024-03-22T03:32:29;19.15;;;14.77;;
72273;SDS011;77240;48.692;8.948;2024-03-22T03:34:55;16.70;;;14.20;;
72273;SDS011;77240;48.692;8.948;2024-03-22T03:37:21;18.40;;;13.70;;
72273;SDS011;77240;48.692;8.948;2024-03-22T03:39:48;17.58;;;13.30;;
72273;SDS011;77240;48.692;8.948;2024-03-22T03:42:15;16.77;;;13.50;;
72273;SDS011;77240;48.692;8.948;2024-03-22T03:44:41;17.17;;;14.00;;
72273;SDS011;77240;48.692;8.948;2024-03-22T03:47:07;16.75;;;14.57;;
72273;SDS011;77240;48.692;8.948;2024-03-22T03:49:34;18.20;;;15.70;;
72273;SDS011;77240;48.692;8.948;2024-03-22T03:52:00;17.98;;;14.50;;
72273;SDS011;77240;48.692;8.948;2024-03-22T03:54:29;18.73;;;14.57;;
72273;SDS011;77240;48.692;8.948;2024-03-22T03:56:55;18.50;;;14.73;;
72273;SDS011;77240;48.692;8.948;2024-03-22T03:59:21;16.83;;;13.55;;
72273;SDS011;77240;48.692;8.948;2024-03-22T04:01:47;18.08;;;13.95;;
72273;SDS011;77240;48.692;8.948;2024-03-22T04:04:13;16.20;;;13.13;;
72273;SDS011;77240;48.692;8.948;2024-03-22T04:06:40;20.38;;;14.05;;
72273;SDS011;77240;48.692;8.948;2024-03-22T04:09:06;18.08;;;13.50;;
72273;SDS011;77240;48.692;8.948;2024-03-22T04:11:32;16.67;;;13.93;;
72273;SDS011;77240;48.692;8.948;2024-03-22T04:13:58;21.52;;;14.95;;
72273;SDS011;77240;48.692;8.948;2024-03-22T04:16:24;18.02;;;13.75;;
72273;SDS011;77240;48.692;8.948;2024-03-22T04:18:50;17.63;;;13.57;;
72273;SDS011;77240;48.692;8.948;2024-03-22T04:21:16;15.13;;;13.52;;
72273;SDS011;77240;48.692;8.948;2024-03-22T04:23:42;17.88;;;13.00;;
72273;SDS011;77240;48.692;8.948;2024-03-22T04:26:08;17.83;;;13.02;;
72273;SDS011;77240;48.692;8.948;2024-03-22T04:28:34;16.27;;;13.07;;
72273;SDS011;77240;48.692;8.948;2024-03-22T04:33:29;14.13;;;12.63;;
72273;SDS011;77240;48.692;8.948;2024-03-22T04:35:57;15.75;;;13.05;;
72273;SDS011;77240;48.692;8.948;2024-03-22T04:38:23;16.77;;;13.40;;
72273;SDS011;77240;48.692;8.948;2024-03-22T04:40:51;20.20;;;14.23;;
72273;SDS011;77240;48.692;8.948;2024-03-22T04:43:19;19.23;;;14.57;;
72273;SDS011;77240;48.692;8.948;2024-03-22T04:45:46;17.80;;;14.30;;
72273;SDS011;77240;48.692;8.948;2024-03-22T04:48:14;19.27;;;13.65;;
72273;SDS011;77240;48.692;8.948;2024-03-22T04:50:43;17.85;;;12.50;;
72273;SDS011;77240;48.692;8.948;2024-03-22T04:53:09;15.93;;;12.82;;
72273;SDS011;77240;48.692;8.948;2024-03-22T04:55:36;19.30;;;13.05;;
72273;SDS011;77240;48.692;8.948;2024-03-22T04:58:05;16.27;;;12.80;;
72273;SDS011;77240;48.692;8.948;2024-03-22T05:00:32;15.88;;;13.38;;
72273;SDS011;77240;48.692;8.948;2024-03-22T05:02:58;17.00;;;13.57;;
72273;SDS011;77240;48.692;8.948;2024-03-22T05:05:25;15.57;;;12.63;;
72273;SDS011;77240;48.692;8.948;2024-03-22T05:07:51;17.95;;;13.40;;
72273;SDS011;77240;48.692;8.948;2024-03-22T05:10:17;15.38;;;13.20;;
72273;SDS011;77240;48.692;8.948;2024-03-22T05:12:43;15.52;;;13.82;;
72273;SDS011;77240;48.692;8.948;2024-03-22T05:15:09;15.18;;;13.57;;
72273;SDS011;77240;48.692;8.948;2024-03-22T05:17:35;23.67;;;14.10;;
72273;SDS011;77240;48.692;8.948;2024-03-22T05:20:02;19.10;;;14.63;;
72273;SDS011;77240;48.692;8.948;2024-03-22T05:22:28;16.80;;;13.60;;
72273;SDS011;77240;48.692;8.948;2024-03-22T05:24:54;17.85;;;14.35;;
72273;SDS011;77240;48.692;8.948;2024-03-22T05:27:20;17.05;;;13.20;;
72273;SDS011;77240;48.692;8.948;2024-03-22T05:29:46;20.25;;;13.85;;
72273;SDS011;77240;48.692;8.948;2024-03-22T05:32:13;17.13;;;13.95;;
72273;SDS011;77240;48.692;8.948;2024-03-22T05:34:38;20.48;;;15.25;;
72273;SDS011;77240;48.692;8.948;2024-03-22T05:37:06;16.98;;;14.80;;
72273;SDS011;77240;48.692;8.948;2024-03-22T05:39:34;18.77;;;15.45;;
72273;SDS011;77240;48.692;8.948;2024-03-22T05:42:00;18.95;;;14.88;;
72273;SDS011;77240;48.692;8.948;2024-03-22T05:44:26;18.15;;;14.93;;
72273;SDS011;77240;48.692;8.948;2024-03-22T05:46:52;18.77;;;15.23;;
72273;SDS011;77240;48.692;8.948;2024-03-22T05:49:18;18.45;;;14.52;;
72273;SDS011;77240;48.692;8.948;2024-03-22T05:51:45;21.75;;;16.10;;
72273;SDS011;77240;48.692;8.948;2024-03-22T05:54:11;20.85;;;15.77;;
72273;SDS011;77240;48.692;8.948;2024-03-22T05:56:39;20.65;;;14.88;;
72273;SDS011;77240;48.692;8.948;2024-03-22T05:59:05;18.42;;;14.63;;
72273;SDS011;77240;48.692;8.948;2024-03-22T06:01:31;20.05;;;15.90;;
72273;SDS011;77240;48.692;8.948;2024-03-22T06:03:58;22.58;;;15.90;;
72273;SDS011;77240;48.692;8.948;2024-03-22T06:06:24;19.58;;;15.68;;
72273;SDS011;77240;48.692;8.948;2024-03-22T06:08:53;23.35;;;16.17;;
72273;SDS011;77240;48.692;8.948;2024-03-22T06:11:20;22.15;;;17.48;;
72273;SDS011;77240;48.692;8.948;2024-03-22T06:13:49;22.48;;;17.45;;
72273;SDS011;77240;48.692;8.948;2024-03-22T06:16:17;21.83;;;17.17;;
72273;SDS011;77240;48.692;8.948;2024-03-22T06:18:44;21.75;;;17.48;;
72273;SDS011;77240;48.692;8.948;2024-03-22T06:21:11;18.55;;;15.70;;
72273;SDS011;77240;48.692;8.948;2024-03-22T06:23:40;23.85;;;17.05;;
72273;SDS011;77240;48.692;8.948;2024-03-22T06:26:07;20.27;;;16.95;;
72273;SDS011;77240;48.692;8.948;2024-03-22T06:28:33;19.63;;;17.15;;
72273;SDS011;77240;48.692;8.948;2024-03-22T06:30:59;25.23;;;17.17;;
72273;SDS011;77240;48.692;8.948;2024-03-22T06:33:26;21.88;;;17.77;;
72273;SDS011;77240;48.692;8.948;2024-03-22T06:35:52;25.85;;;16.60;;
72273;SDS011;77240;48.692;8.948;2024-03-22T06:38:18;22.67;;;16.23;;
72273;SDS011;77240;48.692;8.948;2024-03-22T06:40:44;26.83;;;16.80;;
72273;SDS011;77240;48.692;8.948;2024-03-22T06:43:11;23.70;;;17.63;;
72273;SDS011;77240;48.692;8.948;2024-03-22T06:45:37;30.20;;;24.60;;
72273;SDS011;77240;48.692;8.948;2024-03-22T06:48:03;38.40;;;29.95;;
72273;SDS011;77240;48.692;8.948;2024-03-22T06:50:35;21.85;;;18.50;;
72273;SDS011;77240;48.692;8.948;2024-03-22T06:53:01;25.48;;;19.00;;
72273;SDS011;77240;48.692;8.948;2024-03-22T06:55:28;25.30;;;18.52;;
72273;SDS011;77240;48.692;8.948;2024-03-22T06:57:54;25.70;;;17.55;;
72273;SDS011;77240;48.692;8.948;2024-03-22T07:00:20;28.63;;;20.65;;
72273;SDS011;77240;48.692;8.948;2024-03-22T07:02:47;25.05;;;18.60;;
72273;SDS011;77240;48.692;8.948;2024-03-22T07:05:13;23.30;;;19.25;;
72273;SDS011;77240;48.692;8.948;2024-03-22T07:07:39;25.63;;;17.85;;
72273;SDS011;77240;48.692;8.948;2024-03-22T07:10:06;27.67;;;18.23;;
72273;SDS011;77240;48.692;8.948;2024-03-22T07:12:32;22.58;;;17.42;;
72273;SDS011;77240;48.692;8.948;2024-03-22T07:14:59;21.45;;;16.77;;
72273;SDS011;77240;48.692;8.948;2024-03-22T07:17:27;24.90;;;15.35;;
72273;SDS011;77240;48.692;8.948;2024-03-22T07:19:54;20.23;;;13.60;;
72273;SDS011;77240;48.692;8.948;2024-03-22T07:22:21;22.90;;;15.93;;
72273;SDS011;77240;48.692;8.948;2024-03-22T07:24:48;21.75;;;14.65;;
72273;SDS011;77240;48.692;8.948;2024-03-22T07:27:15;19.55;;;14.50;;
72273;SDS011;77240;48.692;8.948;2024-03-22T07:29:41;22.50;;;14.80;;
72273;SDS011;77240;48.692;8.948;2024-03-22T07:32:07;24.95;;;15.02;;
72273;SDS011;77240;48.692;8.948;2024-03-22T07:34:33;21.17;;;14.38;;
72273;SDS011;77240;48.692;8.948;2024-03-22T07:37:00;21.00;;;13.90;;
72273;SDS011;77240;48.692;8.948;2024-03-22T07:39:26;18.35;;;12.68;;
72273;SDS011;77240;48.692;8.948;2024-03-22T07:41:52;19.60;;;12.57;;
72273;SDS011;77240;48.692;8.948;2024-03-22T07:44:18;16.88;;;12.50;;
72273;SDS011;77240;48.692;8.948;2024-03-22T07:46:50;18.13;;;12.60;;
72273;SDS011;77240;48.692;8.948;2024-03-22T07:49:17;16.17;;;13.00;;
72273;SDS011;77240;48.692;8.948;2024-03-22T07:51:43;15.27;;;11.98;;
72273;SDS011;77240;48.692;8.948;2024-03-22T07:54:11;18.08;;;11.98;;
72273;SDS011;77240;48.692;8.948;2024-03-22T07:56:37;14.10;;;11.07;;
72273;SDS011;77240;48.692;8.948;2024-03-22T07:59:03;16.60;;;12.15;;
72273;SDS011;77240;48.692;8.948;2024-03-22T08:01:29;12.80;;;11.32;;
72273;SDS011;77240;48.692;8.948;2024-03-22T08:03:55;14.10;;;11.80;;
72273;SDS011;77240;48.692;8.948;2024-03-22T08:06:21;12.07;;;10.68;;
72273;SDS011;77240;48.692;8.948;2024-03-22T08:08:48;12.80;;;10.98;;
72273;SDS011;77240;48.692;8.948;2024-03-22T08:11:14;15.25;;;11.07;;
72273;SDS011;77240;48.692;8.948;2024-03-22T08:13:40;14.65;;;11.10;;
72273;SDS011;77240;48.692;8.948;2024-03-22T08:16:06;14.07;;;10.70;;
72273;SDS011;77240;48.692;8.948;2024-03-22T08:18:32;17.60;;;10.57;;
72273;SDS011;77240;48.692;8.948;2024-03-22T08:21:02;14.93;;;10.65;;
72273;SDS011;77240;48.692;8.948;2024-03-22T08:23:29;13.32;;;10.50;;
72273;SDS011;77240;48.692;8.948;2024-03-22T08:25:55;13.88;;;11.10;;
72273;SDS011;77240;48.692;8.948;2024-03-22T08:28:24;14.65;;;10.50;;
72273;SDS011;77240;48.692;8.948;2024-03-22T08:30:50;15.50;;;10.38;;
72273;SDS011;77240;48.692;8.948;2024-03-22T08:33:18;17.15;;;10.50;;
72273;SDS011;77240;48.692;8.948;2024-03-22T08:35:44;14.77;;;9.88;;
72273;SDS011;77240;48.692;8.948;2024-03-22T08:38:10;13.80;;;10.45;;
72273;SDS011;77240;48.692;8.948;2024-03-22T08:40:40;17.70;;;10.60;;
72273;SDS011;77240;48.692;8.948;2024-03-22T08:43:06;14.80;;;10.20;;
72273;SDS011;77240;48.692;8.948;2024-03-22T08:45:35;12.90;;;10.15;;
72273;SDS011;77240;48.692;8.948;2024-03-22T08:48:01;12.88;;;10.40;;
72273;SDS011;77240;48.692;8.948;2024-03-22T08:50:28;12.20;;;10.32;;
72273;SDS011;77240;48.692;8.948;2024-03-22T08:52:54;11.48;;;10.13;;
72273;SDS011;77240;48.692;8.948;2024-03-22T08:55:20;12.05;;;10.27;;
72273;SDS011;77240;48.692;8.948;2024-03-22T08:57:46;12.50;;;9.63;;
72273;SDS011;77240;48.692;8.948;2024-03-22T09:00:12;13.35;;;9.30;;
72273;SDS011;77240;48.692;8.948;2024-03-22T09:02:38;13.43;;;9.00;;
72273;SDS011;77240;48.692;8.948;2024-03-22T09:05:05;13.20;;;8.55;;
72273;SDS011;77240;48.692;8.948;2024-03-22T09:07:31;12.20;;;9.10;;
72273;SDS011;77240;48.692;8.948;2024-03-22T09:09:57;11.52;;;8.52;;
72273;SDS011;77240;48.692;8.948;2024-03-22T09:12:23;10.70;;;8.43;;
72273;SDS011;77240;48.692;8.948;2024-03-22T09:14:50;11.65;;;9.00;;
72273;SDS011;77240;48.692;8.948;2024-03-22T09:17:17;10.70;;;8.60;;
72273;SDS011;77240;48.692;8.948;2024-03-22T09:19:43;11.93;;;8.65;;
72273;SDS011;77240;48.692;8.948;2024-03-22T09:22:09;11.75;;;8.50;;
72273;SDS011;77240;48.692;8.948;2024-03-22T09:24:35;9.57;;;7.70;;
72273;SDS011;77240;48.692;8.948;2024-03-22T09:27:01;11.00;;;8.02;;
72273;SDS011;77240;48.692;8.948;2024-03-22T09:29:30;10.45;;;7.90;;
72273;SDS011;77240;48.692;8.948;2024-03-22T09:31:57;11.57;;;7.65;;
72273;SDS011;77240;48.692;8.948;2024-03-22T09:34:23;7.70;;;5.53;;
72273;SDS011;77240;48.692;8.948;2024-03-22T09:36:49;7.07;;;5.50;;
72273;SDS011;77240;48.692;8.948;2024-03-22T09:39:16;9.45;;;5.70;;
72273;SDS011;77240;48.692;8.948;2024-03-22T09:41:42;10.27;;;7.47;;
72273;SDS011;77240;48.692;8.948;2024-03-22T09:44:13;12.73;;;8.63;;
72273;SDS011;77240;48.692;8.948;2024-03-22T09:46:43;7.60;;;6.13;;
72273;SDS011;77240;48.692;8.948;2024-03-22T09:49:13;8.10;;;6.07;;
72273;SDS011;77240;48.692;8.948;2024-03-22T09:51:39;8.45;;;5.60;;
72273;SDS011;77240;48.692;8.948;2024-03-22T09:54:08;7.70;;;5.68;;
72273;SDS011;77240;48.692;8.948;2024-03-22T09:56:40;7.50;;;5.57;;
72273;SDS011;77240;48.692;8.948;2024-03-22T09:59:09;7.30;;;5.70;;
72273;SDS011;77240;48.692;8.948;2024-03-22T10:01:39;8.38;;;5.25;;
72273;SDS011;77240;48.692;8.948;2024-03-22T10:04:07;8.13;;;6.20;;
72273;SDS011;77240;48.692;8.948;2024-03-22T10:06:35;8.90;;;6.93;;
72273;SDS011;77240;48.692;8.948;2024-03-22T10:09:02;9.30;;;7.22;;
72273;SDS011;77240;48.692;8.948;2024-03-22T10:11:30;9.73;;;7.25;;
72273;SDS011;77240;48.692;8.948;2024-03-22T10:13:56;9.75;;;6.95;;
72273;SDS011;77240;48.692;8.948;2024-03-22T10:16:22;10.23;;;6.90;;
72273;SDS011;77240;48.692;8.948;2024-03-22T10:18:49;8.18;;;6.82;;
72273;SDS011;77240;48.692;8.948;2024-03-22T10:21:18;9.30;;;6.63;;
72273;SDS011;77240;48.692;8.948;2024-03-22T10:23:46;8.57;;;5.68;;
72273;SDS011;77240;48.692;8.948;2024-03-22T10:26:14;5.70;;;4.57;;
72273;SDS011;77240;48.692;8.948;2024-03-22T10:28:44;6.82;;;4.57;;
72273;SDS011;77240;48.692;8.948;2024-03-22T10:31:13;6.88;;;3.78;;
72273;SDS011;77240;48.692;8.948;2024-03-22T10:33:44;7.07;;;4.90;;
72273;SDS011;77240;48.692;8.948;2024-03-22T10:36:10;7.70;;;5.53;;
72273;SDS011;77240;48.692;8.948;2024-03-22T10:38:38;7.30;;;5.30;;
72273;SDS011;77240;48.692;8.948;2024-03-22T10:41:06;6.28;;;4.28;;
72273;SDS011;77240;48.692;8.948;2024-03-22T10:43:32;5.03;;;3.33;;
72273;SDS011;77240;48.692;8.948;2024-03-22T10:46:02;5.45;;;3.50;;
72273;SDS011;77240;48.692;8.948;2024-03-22T10:48:30;5.05;;;3.85;;
72273;SDS011;77240;48.692;8.948;2024-03-22T10:51:00;5.03;;;3.58;;
72273;SDS011;77240;48.692;8.948;2024-03-22T10:53:30;5.97;;;3.42;;
72273;SDS011;77240;48.692;8.948;2024-03-22T10:55:57;5.85;;;3.20;;
72273;SDS011;77240;48.692;8.948;2024-03-22T10:58:25;5.05;;;3.40;;
72273;SDS011;77240;48.692;8.948;2024-03-22T11:00:54;4.70;;;3.35;;
72273;SDS011;77240;48.692;8.948;2024-03-22T11:03:22;6.15;;;3.55;;
72273;SDS011;77240;48.692;8.948;2024-03-22T11:05:50;7.25;;;3.50;;
72273;SDS011;77240;48.692;8.948;2024-03-22T11:08:29;4.50;;;3.25;;
72273;SDS011;77240;48.692;8.948;2024-03-22T11:10:56;7.25;;;3.85;;
72273;SDS011;77240;48.692;8.948;2024-03-22T11:13:23;4.45;;;3.28;;
72273;SDS011;77240;48.692;8.948;2024-03-22T11:15:50;5.60;;;3.00;;
72273;SDS011;77240;48.692;8.948;2024-03-22T11:18:20;3.05;;;2.42;;
72273;SDS011;77240;48.692;8.948;2024-03-22T11:20:46;3.58;;;2.70;;
72273;SDS011;77240;48.692;8.948;2024-03-22T11:23:13;3.53;;;2.53;;
72273;SDS011;77240;48.692;8.948;2024-03-22T11:25:40;3.80;;;2.17;;
72273;SDS011;77240;48.692;8.948;2024-03-22T11:28:06;2.92;;;2.45;;
72273;SDS011;77240;48.692;8.948;2024-03-22T11:30:36;3.92;;;2.60;;
72273;SDS011;77240;48.692;8.948;2024-03-22T11:33:02;5.40;;;2.58;;
72273;SDS011;77240;48.692;8.948;2024-03-22T11:35:30;3.33;;;2.22;;
72273;SDS011;77240;48.692;8.948;2024-03-22T11:37:57;5.07;;;2.38;;
72273;SDS011;77240;48.692;8.948;2024-03-22T11:40:25;7.35;;;3.10;;
72273;SDS011;77240;48.692;8.948;2024-03-22T11:42:52;4.25;;;2.42;;
72273;SDS011;77240;48.692;8.948;2024-03-22T11:45:20;4.82;;;1.95;;
72273;SDS011;77240;48.692;8.948;2024-03-22T11:47:49;3.60;;;2.22;;
72273;SDS011;77240;48.692;8.948;2024-03-22T11:50:15;4.53;;;1.70;;
72273;SDS011;77240;48.692;8.948;2024-03-22T11:52:42;3.22;;;2.20;;
72273;SDS011;77240;48.692;8.948;2024-03-22T11:55:12;3.03;;;2.15;;
72273;SDS011;77240;48.692;8.948;2024-03-22T11:57:40;6.25;;;4.07;;
72273;SDS011;77240;48.692;8.948;2024-03-22T12:00:07;6.13;;;4.22;;
72273;SDS011;77240;48.692;8.948;2024-03-22T12:02:40;5.25;;;3.80;;
72273;SDS011;77240;48.692;8.948;2024-03-22T12:05:07;4.50;;;3.72;;
72273;SDS011;77240;48.692;8.948;2024-03-22T12:07:35;6.15;;;3.90;;
72273;SDS011;77240;48.692;8.948;2024-03-22T12:10:03;5.47;;;3.78;;
72273;SDS011;77240;48.692;8.948;2024-03-22T12:12:30;5.38;;;4.13;;
72273;SDS011;77240;48.692;8.948;2024-03-22T12:14:56;6.32;;;4.43;;
72273;SDS011;77240;48.692;8.948;2024-03-22T12:17:24;5.18;;;3.85;;
72273;SDS011;77240;48.692;8.948;2024-03-22T12:19:50;5.13;;;3.83;;
72273;SDS011;77240;48.692;8.948;2024-03-22T12:22:17;6.57;;;4.05;;
72273;SDS011;77240;48.692;8.948;2024-03-22T12:24:43;5.57;;;3.60;;
72273;SDS011;77240;48.692;8.948;2024-03-22T12:27:10;4.90;;;3.13;;
72273;SDS011;77240;48.692;8.948;2024-03-22T12:29:36;6.03;;;3.47;;
72273;SDS011;77240;48.692;8.948;2024-03-22T12:32:02;4.70;;;3.00;;
72273;SDS011;77240;48.692;8.948;2024-03-22T12:34:32;4.82;;;2.97;;
72273;SDS011;77240;48.692;8.948;2024-03-22T12:36:59;4.72;;;3.33;;
72273;SDS011;77240;48.692;8.948;2024-03-22T12:39:25;6.60;;;3.60;;
72273;SDS011;77240;48.692;8.948;2024-03-22T12:41:52;6.10;;;3.42;;
72273;SDS011;77240;48.692;8.948;2024-03-22T12:44:20;6.57;;;3.72;;
72273;SDS011;77240;48.692;8.948;2024-03-22T12:46:47;4.43;;;3.20;;
72273;SDS011;77240;48.692;8.948;2024-03-22T12:49:14;3.97;;;3.60;;
72273;SDS011;77240;48.692;8.948;2024-03-22T12:51:40;5.20;;;3.63;;
72273;SDS011;77240;48.692;8.948;2024-03-22T12:54:07;5.55;;;3.58;;
72273;SDS011;77240;48.692;8.948;2024-03-22T12:56:35;4.25;;;3.20;;
72273;SDS011;77240;48.692;8.948;2024-03-22T12:59:03;5.50;;;3.30;;
72273;SDS011;77240;48.692;8.948;2024-03-22T13:01:30;3.80;;;3.00;;
72273;SDS011;77240;48.692;8.948;2024-03-22T13:03:56;6.15;;;3.28;;
72273;SDS011;77240;48.692;8.948;2024-03-22T13:06:22;7.20;;;3.15;;
72273;SDS011;77240;48.692;8.948;2024-03-22T13:08:48;4.57;;;3.35;;
72273;SDS011;77240;48.692;8.948;2024-03-22T13:11:14;3.70;;;3.30;;
72273;SDS011;77240;48.692;8.948;2024-03-22T13:13:40;5.50;;;3.30;;
72273;SDS011;77240;48.692;8.948;2024-03-22T13:16:08;4.72;;;3.20;;
72273;SDS011;77240;48.692;8.948;2024-03-22T13:18:36;3.90;;;3.28;;
72273;SDS011;77240;48.692;8.948;2024-03-22T13:21:02;4.80;;;3.10;;
72273;SDS011;77240;48.692;8.948;2024-03-22T13:23:31;5.00;;;3.08;;
72273;SDS011;77240;48.692;8.948;2024-03-22T13:25:57;4.88;;;3.17;;
72273;SDS011;77240;48.692;8.948;2024-03-22T13:28:28;5.75;;;3.17;;
72273;SDS011;77240;48.692;8.948;2024-03-22T13:31:04;4.93;;;2.78;;
72273;SDS011;77240;48.692;8.948;2024-03-22T13:33:33;4.93;;;2.78;;
72273;SDS011;77240;48.692;8.948;2024-03-22T13:36:00;3.90;;;2.60;;
72273;SDS011;77240;48.692;8.948;2024-03-22T13:38:28;2.85;;;2.30;;
72273;SDS011;77240;48.692;8.948;2024-03-22T13:40:56;6.45;;;2.65;;
72273;SDS011;77240;48.692;8.948;2024-03-22T13:43:23;4.63;;;2.28;;
72273;SDS011;77240;48.692;8.948;2024-03-22T13:45:51;3.70;;;2.35;;
72273;SDS011;77240;48.692;8.948;2024-03-22T13:48:22;2.58;;;2.00;;
72273;SDS011;77240;48.692;8.948;2024-03-22T13:50:52;3.55;;;2.08;;
72273;SDS011;77240;48.692;8.948;2024-03-22T13:53:22;2.63;;;2.00;;
72273;SDS011;77240;48.692;8.948;2024-03-22T13:55:49;3.72;;;2.30;;
72273;SDS011;77240;48.692;8.948;2024-03-22T13:58:15;3.92;;;2.00;;
72273;SDS011;77240;48.692;8.948;2024-03-22T14:00:42;3.63;;;2.25;;
72273;SDS011;77240;48.692;8.948;2024-03-22T14:03:08;4.00;;;2.03;;
72273;SDS011;77240;48.692;8.948;2024-03-22T14:05:34;3.55;;;2.20;;
72273;SDS011;77240;48.692;8.948;2024-03-22T14:08:01;3.78;;;1.40;;
72273;SDS011;77240;48.692;8.948;2024-03-22T14:10:27;2.58;;;1.30;;
72273;SDS011;77240;48.692;8.948;2024-03-22T14:12:53;1.10;;;0.80;;
72273;SDS011;77240;48.692;8.948;2024-03-22T14:15:19;2.53;;;1.10;;
72273;SDS011;77240;48.692;8.948;2024-03-22T14:17:45;1.42;;;0.80;;
72273;SDS011;77240;48.692;8.948;2024-03-22T14:20:12;2.10;;;0.88;;
72273;SDS011;77240;48.692;8.948;2024-03-22T14:22:39;1.60;;;0.77;;
72273;SDS011;77240;48.692;8.948;2024-03-22T14:25:06;7.28;;;1.10;;
72273;SDS011;77240;48.692;8.948;2024-03-22T14:27:34;1.27;;;0.80;;
72273;SDS011;77240;48.692;8.948;2024-03-22T14:30:01;1.80;;;0.80;;
72273;SDS011;77240;48.692;8.948;2024-03-22T14:32:34;0.95;;;0.80;;